MV Schillig — ZDKV2 — position and weather

sailwx.info

Track history (hours):
 
Tides and Currents Weather Stations Pressure Air Temp Water Temp Dewpoint Dewpoint Depression Visibility Wind Speed Wind Dir Waves Ship Positions

MV Schillig

Last reported at 2017-Oct-18 16:22 UTC. Time now 2017-Oct-18 16:57 UTC.
Position N 38°49' W 010°11'.

Length 86 m; draft 5.2 m.

Type: Ship. MMSI: 236111817.

Date/timePositionNaut miles runAvg speedWind from/ knotsBaromVisibWave heightAir tempDewpointWater temp
2017-Oct-18 16:22N 38°49' W 010°11'410.3
2017-Oct-18 16:00N 38°53' W 010°11'510.1
2017-Oct-18 15:30N 38°58' W 010°11'5 9.9
2017-Oct-18 15:01N 39°03' W 010°11'1010.3
2017-Oct-18 14:01N 39°13' W 010°11'  
2017-Oct-16 03:57N 46°50' W 005°20'5 9.9
2017-Oct-16 03:25N 46°55' W 005°21'410.0
2017-Oct-16 03:00N 46°59' W 005°23'510.1
2017-Oct-16 02:31N 47°04' W 005°24'510.2
2017-Oct-16 02:01N 47°09' W 005°25'510.4
2017-Oct-16 01:30N 47°14' W 005°27'510.7
2017-Oct-16 01:01N 47°19' W 005°28'510.6
2017-Oct-16 00:30N 47°24' W 005°30'510.4
2017-Oct-16 00:01N 47°29' W 005°31'510.0
2017-Oct-15 23:30N 47°34' W 005°33'5 9.5
2017-Oct-15 23:00N 47°39' W 005°35'5 9.4
2017-Oct-15 22:31N 47°43' W 005°37'5 9.6
2017-Oct-15 22:00N 47°48' W 005°39'5 9.8
2017-Oct-15 21:30N 47°53' W 005°41'510.0
2017-Oct-15 21:01N 47°58' W 005°42'510.4
2017-Oct-15 20:30N 48°03' W 005°44'510.4
2017-Oct-15 20:00N 48°08' W 005°46'510.7
2017-Oct-15 19:31N 48°13' W 005°48'510.9
2017-Oct-15 19:00N 48°18' W 005°49'611.3
2017-Oct-15 18:30N 48°24' W 005°51'611.3
2017-Oct-15 17:58N 48°30' W 005°53'1310.7
2017-Oct-15 16:43N 48°43' W 005°53'810.3
2017-Oct-15 15:58N 48°50' W 005°48'10 9.4
2017-Oct-15 14:53N 48°57' W 005°36'11 8.9
2017-Oct-15 13:38N 49°02' W 005°21'28 9.5
2017-Oct-15 10:38N 49°19' W 004°46'1010.5
2017-Oct-15 09:43N 49°24' W 004°33'210.7
2017-Oct-15 09:30N 49°25' W 004°30'610.9
2017-Oct-15 08:56N 49°28' W 004°22'511.1
2017-Oct-15 08:30N 49°30' W 004°15'611.2
2017-Oct-15 08:01N 49°33' W 004°08'611.3
2017-Oct-15 07:31N 49°36' W 004°00'611.1
2017-Oct-15 07:01N 49°39' W 003°53'510.8
2017-Oct-15 06:30N 49°41' W 003°46'510.6
2017-Oct-15 06:00N 49°44' W 003°39'510.1
2017-Oct-15 05:30N 49°47' W 003°32'5 9.8
2017-Oct-15 05:00N 49°49' W 003°25'5 9.6
2017-Oct-15 04:30N 49°51' W 003°19'5 9.6
2017-Oct-15 04:00N 49°54' W 003°12'5 9.5
2017-Oct-15 03:30N 49°56' W 003°06'5 9.3
2017-Oct-15 03:00N 49°58' W 002°60'5 9.4
2017-Oct-15 02:29N 50°01' W 002°53'5 9.5
2017-Oct-15 01:57N 50°02' W 002°45'4 9.9
2017-Oct-15 01:30N 50°03' W 002°39'610.3
2017-Oct-15 00:53N 50°05' W 002°29'510.8
2017-Oct-15 00:26N 50°07' W 002°22'511.3
2017-Oct-15 00:00N 50°08' W 002°15'611.8
2017-Oct-14 23:28N 50°10' W 002°05'2212.7
2017-Oct-14 21:43N 50°16' W 001°32'313.1
2017-Oct-14 21:30N 50°17' W 001°28'713.0
2017-Oct-14 21:00N 50°19' W 001°18'612.9
2017-Oct-14 20:31N 50°20' W 001°08'612.6
2017-Oct-14 20:00N 50°22' W 000°58'611.9
2017-Oct-14 19:30N 50°23' W 000°50'611.2
2017-Oct-14 19:00N 50°25' W 000°41'610.7
2017-Oct-14 18:29N 50°26' W 000°33'910.4
2017-Oct-14 17:36N 50°29' W 000°19'110.0
2017-Oct-14 17:30N 50°29' W 000°17'5 9.9
2017-Oct-14 17:00N 50°31' W 000°10'5 9.7
2017-Oct-14 16:30N 50°32' W 000°02'5 9.6
2017-Oct-14 16:00N 50°33' E 000°05'5 9.5
2017-Oct-14 15:30N 50°34' E 000°12'5 9.5
2017-Oct-14 15:01N 50°36' E 000°19'5 9.8
2017-Oct-14 14:31N 50°37' E 000°27'510.2
2017-Oct-14 14:00N 50°39' E 000°34'510.8
2017-Oct-14 13:30N 50°42' E 000°41'611.1
2017-Oct-14 13:00N 50°45' E 000°49'611.4
2017-Oct-14 12:30N 50°48' E 000°56'611.3
2017-Oct-14 12:00N 50°52' E 001°03'611.2
2017-Oct-14 11:28N 50°55' E 001°10'910.8
2017-Oct-14 10:37N 51°01' E 001°22'110.5
2017-Oct-14 10:30N 51°02' E 001°23'510.3
2017-Oct-14 10:00N 51°05' E 001°29'5 9.9
2017-Oct-14 09:30N 51°09' E 001°35'5 9.6
2017-Oct-14 09:01N 51°12' E 001°41'5 9.4
2017-Oct-14 08:31N 51°15' E 001°46'5 9.5
2017-Oct-14 08:00N 51°19' E 001°50'5 9.6
2017-Oct-14 07:31N 51°23' E 001°54'5 9.9
2017-Oct-14 07:00N 51°28' E 001°58'510.4
2017-Oct-14 06:31N 51°32' E 002°03'510.5
2017-Oct-14 06:00N 51°36' E 002°09'610.6
2017-Oct-14 05:29N 51°40' E 002°15'510.9
2017-Oct-14 05:00N 51°44' E 002°20'611.3
2017-Oct-14 04:30N 51°48' E 002°26'711.6
2017-Oct-14 03:55N 51°53' E 002°33'611.6
2017-Oct-14 03:24N 51°58' E 002°40'511.5
2017-Oct-14 02:59N 52°01' E 002°44'1211.4
2017-Oct-14 01:58N 52°10' E 002°57'511.2
2017-Oct-14 01:30N 52°14' E 003°02'511.0
2017-Oct-14 01:00N 52°19' E 003°07'610.5
2017-Oct-14 00:29N 52°23' E 003°12'710.0
2017-Oct-13 23:44N 52°29' E 003°19'4 9.5
2017-Oct-13 23:22N 52°32' E 003°23'4 9.2
2017-Oct-13 22:56N 52°35' E 003°27'4 9.1
2017-Oct-13 22:30N 52°38' E 003°31'5 8.9
2017-Oct-13 21:55N 52°43' E 003°36'27 8.6
2017-Oct-13 18:47N 53°02' E 004°07'35 9.4
2017-Oct-13 15:03N 53°29' E 004°44'1 9.2
2017-Oct-13 14:59N 53°29' E 004°45'4 8.8
2017-Oct-13 14:31N 53°31' E 004°51'4 8.5
2017-Oct-13 14:00N 53°33' E 004°58'4 7.9
2017-Oct-13 13:30N 53°34' E 005°04'4 8.2
2017-Oct-13 13:00N 53°35' E 005°11'104 9.1
2017-Oct-13 01:40N 53°50' E 008°04'3 8.0
2017-Oct-13 01:21N 53°49' E 008°08'3 8.4
2017-Oct-13 01:00N 53°46' E 008°10'4 8.5
2017-Oct-13 00:30N 53°44' E 008°16'510.2
2017-Oct-13 00:00N 53°40' E 008°22'611.8
2017-Oct-12 23:30N 53°36' E 008°30'611.1
2017-Oct-12 23:00N 53°31' E 008°33'611.6
2017-Oct-12 22:30N 53°26' E 008°30'612.2
2017-Oct-12 22:01N 53°20' E 008°29'612.3
2017-Oct-12 21:30N 53°14' E 008°29'510.9
2017-Oct-12 21:00N 53°10' E 008°36'5 9.6
2017-Oct-12 20:31N 53°07' E 008°42'0 0.6
2017-Oct-12 20:00N 53°07' E 008°43'1 1.9
2017-Oct-12 19:30N 53°07' E 008°44'0 0.0
2017-Oct-12 19:00N 53°07' E 008°44'0 0.0
2017-Oct-12 18:30N 53°07' E 008°44'0 0.0
2017-Oct-12 18:00N 53°07' E 008°44'0 0.0
2017-Oct-12 17:30N 53°07' E 008°44'0 0.0
2017-Oct-12 17:00N 53°07' E 008°44'0 0.0
2017-Oct-12 16:30N 53°07' E 008°44'0 0.0
2017-Oct-12 16:00N 53°07' E 008°44'0 0.0
2017-Oct-12 15:30N 53°07' E 008°44'0 0.0
2017-Oct-12 15:00N 53°07' E 008°44'0 0.0
2017-Oct-12 14:30N 53°07' E 008°44'0 0.0
2017-Oct-12 14:00N 53°07' E 008°44'0 0.0
2017-Oct-12 13:30N 53°07' E 008°44'0 0.0
2017-Oct-12 13:00N 53°07' E 008°44'0 0.0
2017-Oct-12 12:30N 53°07' E 008°44'0 0.0
2017-Oct-12 12:00N 53°07' E 008°44'0 0.0
2017-Oct-12 11:30N 53°07' E 008°44'0 0.0
2017-Oct-12 11:00N 53°07' E 008°44'0 0.0
2017-Oct-12 10:30N 53°07' E 008°44'0 0.0
2017-Oct-12 10:00N 53°07' E 008°44'0 0.0
2017-Oct-12 09:30N 53°07' E 008°44'0 0.0
2017-Oct-12 09:00N 53°07' E 008°44'0 0.0
2017-Oct-12 08:30N 53°07' E 008°44'0 0.0
2017-Oct-12 08:00N 53°07' E 008°44'0 0.0
2017-Oct-12 07:30N 53°07' E 008°44'0 0.0
2017-Oct-12 07:00N 53°07' E 008°44'0 0.0
2017-Oct-12 06:30N 53°07' E 008°44'0 0.0
2017-Oct-12 06:00N 53°07' E 008°44'0 0.0
2017-Oct-12 05:30N 53°07' E 008°44'0 0.0
2017-Oct-12 05:00N 53°07' E 008°44'0 0.0
2017-Oct-12 04:30N 53°07' E 008°44'0 0.0
2017-Oct-12 04:00N 53°07' E 008°44'1 2.0
2017-Oct-12 03:30N 53°07' E 008°43'0 0.6
2017-Oct-12 03:00N 53°07' E 008°42'3 5.4
2017-Oct-12 02:31N 53°08' E 008°38'4 8.1
2017-Oct-12 02:00N 53°11' E 008°33'5 9.5
2017-Oct-12 01:30N 53°15' E 008°29'611.0
2017-Oct-12 01:00N 53°21' E 008°30'612.0
2017-Oct-12 00:31N 53°26' E 008°29'611.2
2017-Oct-12 00:00N 53°32' E 008°34'4 8.9
2017-Oct-11 23:31N 53°36' E 008°31'4 8.4
2017-Oct-11 23:00N 53°38' E 008°25'4 7.8
2017-Oct-11 22:30N 53°41' E 008°21'4 7.3
2017-Oct-11 22:00N 53°43' E 008°16'4 8.1
2017-Oct-11 21:31N 53°46' E 008°11'4 7.4
2017-Oct-11 21:00N 53°49' E 008°07'4 8.0
2017-Oct-11 20:30N 53°51' E 008°01'4 8.5
2017-Oct-11 20:00N 53°52' E 007°54'4 8.3
2017-Oct-11 19:29N 53°53' E 007°47'5 8.3
2017-Oct-11 18:53N 53°54' E 007°38'174 9.2
2017-Oct-11 00:00N 52°03' E 003°54'3 6.8
2017-Oct-10 23:31N 52°01' E 003°58'611.9
2017-Oct-10 23:00N 51°59' E 004°07'713.1
2017-Oct-10 22:31N 51°55' E 004°15'4 8.1
2017-Oct-10 21:58N 51°54' E 004°22'0 0.0
2017-Oct-10 21:28N 51°54' E 004°22'0 0.0
2017-Oct-10 20:58N 51°54' E 004°22'0 0.0
2017-Oct-10 20:28N 51°54' E 004°22'0 0.0
2017-Oct-10 19:58N 51°54' E 004°22'0 0.0
2017-Oct-10 19:28N 51°54' E 004°22'0 0.0
2017-Oct-10 18:58N 51°54' E 004°22'0 0.0
2017-Oct-10 18:28N 51°54' E 004°22'0 0.0
2017-Oct-10 17:58N 51°54' E 004°22'0 0.0
2017-Oct-10 17:28N 51°54' E 004°22'0 0.0
2017-Oct-10 16:58N 51°54' E 004°22'0 0.0
2017-Oct-10 16:28N 51°54' E 004°22'0 0.0
2017-Oct-10 15:58N 51°54' E 004°22'0 0.0
2017-Oct-10 15:28N 51°54' E 004°22'0 0.0
2017-Oct-10 14:58N 51°54' E 004°22'0 0.0
2017-Oct-10 13:58N 51°54' E 004°22'0 0.0
2017-Oct-10 13:28N 51°54' E 004°22'0 0.0
2017-Oct-10 12:58N 51°54' E 004°22'0 0.0
2017-Oct-10 12:28N 51°54' E 004°22'0 0.0
2017-Oct-10 11:58N 51°54' E 004°22'0 0.0
2017-Oct-10 11:28N 51°54' E 004°22'0 0.0
2017-Oct-10 10:58N 51°54' E 004°22'0 0.0
2017-Oct-10 10:28N 51°54' E 004°22'0 0.0
2017-Oct-10 09:58N 51°54' E 004°22'0 0.0
2017-Oct-10 09:28N 51°54' E 004°22'0 0.0
2017-Oct-10 08:58N 51°54' E 004°22'0 0.0
2017-Oct-10 08:28N 51°54' E 004°22'0 0.0
2017-Oct-10 07:58N 51°54' E 004°22'0 0.0
2017-Oct-10 07:28N 51°54' E 004°22'0 0.0
2017-Oct-10 06:58N 51°54' E 004°22'0 0.0
2017-Oct-10 06:28N 51°54' E 004°22'0 0.0
2017-Oct-10 05:58N 51°54' E 004°22'0 0.0
2017-Oct-10 05:28N 51°54' E 004°22'0 0.0
2017-Oct-10 04:58N 51°54' E 004°22'0 0.0
2017-Oct-10 04:28N 51°54' E 004°22'0 0.0
2017-Oct-10 03:58N 51°54' E 004°22'0 0.0
2017-Oct-10 03:28N 51°54' E 004°22'0 0.0
2017-Oct-10 02:58N 51°54' E 004°22'0 0.0
2017-Oct-10 02:28N 51°54' E 004°22'0 0.0
2017-Oct-10 01:58N 51°54' E 004°22'0 0.0
2017-Oct-10 01:28N 51°54' E 004°22'0 0.0
2017-Oct-10 00:58N 51°54' E 004°22'0 0.0
2017-Oct-10 00:28N 51°54' E 004°22'0 0.0
2017-Oct-09 23:58N 51°54' E 004°22'0 0.0
2017-Oct-09 23:28N 51°54' E 004°22'0 0.0
2017-Oct-09 22:58N 51°54' E 004°22'0 0.0
2017-Oct-09 22:28N 51°54' E 004°22'0 0.0
2017-Oct-09 21:58N 51°54' E 004°22'0 0.0
2017-Oct-09 21:28N 51°54' E 004°22'0 0.0
2017-Oct-09 20:58N 51°54' E 004°22'0 0.0
2017-Oct-09 20:28N 51°54' E 004°22'0 0.0
2017-Oct-09 19:58N 51°54' E 004°22'0 0.0
2017-Oct-09 19:28N 51°54' E 004°22'0 0.0
2017-Oct-09 18:58N 51°54' E 004°22'0 0.0
2017-Oct-09 18:28N 51°54' E 004°22'0 0.0
2017-Oct-09 17:58N 51°54' E 004°22'0 0.0
2017-Oct-09 17:28N 51°54' E 004°22'0 0.0
2017-Oct-09 16:58N 51°54' E 004°22'0 0.0
2017-Oct-09 16:28N 51°54' E 004°22'0 0.0
2017-Oct-09 15:58N 51°54' E 004°22'0 0.0
2017-Oct-09 15:28N 51°54' E 004°22'0 0.0
2017-Oct-09 14:58N 51°54' E 004°22'0 0.0
2017-Oct-09 14:28N 51°54' E 004°22'0 0.0
2017-Oct-09 13:55N 51°54' E 004°22'0 0.0
2017-Oct-09 13:28N 51°54' E 004°22'0 0.0
2017-Oct-09 12:58N 51°54' E 004°22'0 0.0
2017-Oct-09 12:25N 51°54' E 004°22'0 0.0
2017-Oct-09 11:58N 51°54' E 004°22'0 0.0
2017-Oct-09 11:28N 51°54' E 004°22'0 0.0
2017-Oct-09 10:58N 51°54' E 004°22'0 0.0
2017-Oct-09 10:28N 51°54' E 004°22'0 0.0
2017-Oct-09 09:58N 51°54' E 004°22'0 0.0
2017-Oct-09 09:28N 51°54' E 004°22'0 0.0
2017-Oct-09 08:58N 51°54' E 004°22'0 0.0
2017-Oct-09 08:28N 51°54' E 004°22'0 0.0
2017-Oct-09 07:58N 51°54' E 004°22'0 0.0
2017-Oct-09 07:28N 51°54' E 004°22'0 0.0
2017-Oct-09 06:58N 51°54' E 004°22'0 0.0
2017-Oct-09 06:28N 51°54' E 004°22'0 0.0
2017-Oct-09 05:55N 51°54' E 004°22'0 0.0
2017-Oct-09 05:28N 51°54' E 004°22'0 0.0
2017-Oct-09 04:58N 51°54' E 004°22'0 0.0
2017-Oct-09 04:28N 51°54' E 004°22'0 0.0
2017-Oct-09 03:58N 51°54' E 004°22'0 0.0
2017-Oct-09 03:28N 51°54' E 004°22'0 0.0
2017-Oct-09 02:58N 51°54' E 004°22'0 0.0
2017-Oct-09 02:28N 51°54' E 004°22'0 0.0
2017-Oct-09 01:58N 51°54' E 004°22'0 0.0
2017-Oct-09 01:28N 51°54' E 004°22'0 0.0
2017-Oct-09 00:58N 51°54' E 004°22'0 0.0
2017-Oct-09 00:28N 51°54' E 004°22'0 0.0
2017-Oct-08 23:58N 51°54' E 004°22'0 0.0
2017-Oct-08 23:28N 51°54' E 004°22'0 0.0
2017-Oct-08 22:58N 51°54' E 004°22'0 0.0
2017-Oct-08 22:28N 51°54' E 004°22'0 0.0
2017-Oct-08 21:58N 51°54' E 004°22'0 0.0
2017-Oct-08 21:28N 51°54' E 004°22'0 0.0
2017-Oct-08 20:58N 51°54' E 004°22'0 0.0
2017-Oct-08 20:28N 51°54' E 004°22'0 0.0
2017-Oct-08 19:58N 51°54' E 004°22'0 0.0
2017-Oct-08 19:28N 51°54' E 004°22'0 0.0
2017-Oct-08 18:58N 51°54' E 004°22'0 0.0
2017-Oct-08 18:28N 51°54' E 004°22'0 0.0
2017-Oct-08 17:58N 51°54' E 004°22'0 0.0
2017-Oct-08 17:28N 51°54' E 004°22'0 0.0
2017-Oct-08 16:58N 51°54' E 004°22'0 0.0
2017-Oct-08 16:28N 51°54' E 004°22'  
Track history (hours):
 
Tides and Currents Weather Stations Pressure Air Temp Water Temp Dewpoint Dewpoint Depression Visibility Wind Speed Wind Dir Waves Ship Positions

MV Schillig

Last reported at 2017-Oct-18 16:22 UTC. Time now 2017-Oct-18 16:57 UTC.
Position N 38°49' W 010°11'.

Length 86 m; draft 5.2 m.

Type: Ship. MMSI: 236111817.

Date/timePositionNaut miles runAvg speedWind from/ knotsBaromVisibWave heightAir tempDewpointWater temp
2017-Oct-18 16:22N 38°49' W 010°11'410.3
2017-Oct-18 16:00N 38°53' W 010°11'510.1
2017-Oct-18 15:30N 38°58' W 010°11'5 9.9
2017-Oct-18 15:01N 39°03' W 010°11'1010.3
2017-Oct-18 14:01N 39°13' W 010°11'  
2017-Oct-16 03:57N 46°50' W 005°20'5 9.9
2017-Oct-16 03:25N 46°55' W 005°21'410.0
2017-Oct-16 03:00N 46°59' W 005°23'510.1
2017-Oct-16 02:31N 47°04' W 005°24'510.2
2017-Oct-16 02:01N 47°09' W 005°25'510.4
2017-Oct-16 01:30N 47°14' W 005°27'510.7
2017-Oct-16 01:01N 47°19' W 005°28'510.6
2017-Oct-16 00:30N 47°24' W 005°30'510.4
2017-Oct-16 00:01N 47°29' W 005°31'510.0
2017-Oct-15 23:30N 47°34' W 005°33'5 9.5
2017-Oct-15 23:00N 47°39' W 005°35'5 9.4
2017-Oct-15 22:31N 47°43' W 005°37'5 9.6
2017-Oct-15 22:00N 47°48' W 005°39'5 9.8
2017-Oct-15 21:30N 47°53' W 005°41'510.0
2017-Oct-15 21:01N 47°58' W 005°42'510.4
2017-Oct-15 20:30N 48°03' W 005°44'510.4
2017-Oct-15 20:00N 48°08' W 005°46'510.7
2017-Oct-15 19:31N 48°13' W 005°48'510.9
2017-Oct-15 19:00N 48°18' W 005°49'611.3
2017-Oct-15 18:30N 48°24' W 005°51'611.3
2017-Oct-15 17:58N 48°30' W 005°53'1310.7
2017-Oct-15 16:43N 48°43' W 005°53'810.3
2017-Oct-15 15:58N 48°50' W 005°48'10 9.4
2017-Oct-15 14:53N 48°57' W 005°36'11 8.9
2017-Oct-15 13:38N 49°02' W 005°21'28 9.5
2017-Oct-15 10:38N 49°19' W 004°46'1010.5
2017-Oct-15 09:43N 49°24' W 004°33'210.7
2017-Oct-15 09:30N 49°25' W 004°30'610.9
2017-Oct-15 08:56N 49°28' W 004°22'511.1
2017-Oct-15 08:30N 49°30' W 004°15'611.2
2017-Oct-15 08:01N 49°33' W 004°08'611.3
2017-Oct-15 07:31N 49°36' W 004°00'611.1
2017-Oct-15 07:01N 49°39' W 003°53'510.8
2017-Oct-15 06:30N 49°41' W 003°46'510.6
2017-Oct-15 06:00N 49°44' W 003°39'510.1
2017-Oct-15 05:30N 49°47' W 003°32'5 9.8
2017-Oct-15 05:00N 49°49' W 003°25'5 9.6
2017-Oct-15 04:30N 49°51' W 003°19'5 9.6
2017-Oct-15 04:00N 49°54' W 003°12'5 9.5
2017-Oct-15 03:30N 49°56' W 003°06'5 9.3
2017-Oct-15 03:00N 49°58' W 002°60'5 9.4
2017-Oct-15 02:29N 50°01' W 002°53'5 9.5
2017-Oct-15 01:57N 50°02' W 002°45'4 9.9
2017-Oct-15 01:30N 50°03' W 002°39'610.3
2017-Oct-15 00:53N 50°05' W 002°29'510.8
2017-Oct-15 00:26N 50°07' W 002°22'511.3
2017-Oct-15 00:00N 50°08' W 002°15'611.8
2017-Oct-14 23:28N 50°10' W 002°05'2212.7
2017-Oct-14 21:43N 50°16' W 001°32'313.1
2017-Oct-14 21:30N 50°17' W 001°28'713.0
2017-Oct-14 21:00N 50°19' W 001°18'612.9
2017-Oct-14 20:31N 50°20' W 001°08'612.6
2017-Oct-14 20:00N 50°22' W 000°58'611.9
2017-Oct-14 19:30N 50°23' W 000°50'611.2
2017-Oct-14 19:00N 50°25' W 000°41'610.7
2017-Oct-14 18:29N 50°26' W 000°33'910.4
2017-Oct-14 17:36N 50°29' W 000°19'110.0
2017-Oct-14 17:30N 50°29' W 000°17'5 9.9
2017-Oct-14 17:00N 50°31' W 000°10'5 9.7
2017-Oct-14 16:30N 50°32' W 000°02'5 9.6
2017-Oct-14 16:00N 50°33' E 000°05'5 9.5
2017-Oct-14 15:30N 50°34' E 000°12'5 9.5
2017-Oct-14 15:01N 50°36' E 000°19'5 9.8
2017-Oct-14 14:31N 50°37' E 000°27'510.2
2017-Oct-14 14:00N 50°39' E 000°34'510.8
2017-Oct-14 13:30N 50°42' E 000°41'611.1
2017-Oct-14 13:00N 50°45' E 000°49'611.4
2017-Oct-14 12:30N 50°48' E 000°56'611.3
2017-Oct-14 12:00N 50°52' E 001°03'611.2
2017-Oct-14 11:28N 50°55' E 001°10'910.8
2017-Oct-14 10:37N 51°01' E 001°22'110.5
2017-Oct-14 10:30N 51°02' E 001°23'510.3
2017-Oct-14 10:00N 51°05' E 001°29'5 9.9
2017-Oct-14 09:30N 51°09' E 001°35'5 9.6
2017-Oct-14 09:01N 51°12' E 001°41'5 9.4
2017-Oct-14 08:31N 51°15' E 001°46'5 9.5
2017-Oct-14 08:00N 51°19' E 001°50'5 9.6
2017-Oct-14 07:31N 51°23' E 001°54'5 9.9
2017-Oct-14 07:00N 51°28' E 001°58'510.4
2017-Oct-14 06:31N 51°32' E 002°03'510.5
2017-Oct-14 06:00N 51°36' E 002°09'610.6
2017-Oct-14 05:29N 51°40' E 002°15'510.9
2017-Oct-14 05:00N 51°44' E 002°20'611.3
2017-Oct-14 04:30N 51°48' E 002°26'711.6
2017-Oct-14 03:55N 51°53' E 002°33'611.6
2017-Oct-14 03:24N 51°58' E 002°40'511.5
2017-Oct-14 02:59N 52°01' E 002°44'1211.4
2017-Oct-14 01:58N 52°10' E 002°57'511.2
2017-Oct-14 01:30N 52°14' E 003°02'511.0
2017-Oct-14 01:00N 52°19' E 003°07'610.5
2017-Oct-14 00:29N 52°23' E 003°12'710.0
2017-Oct-13 23:44N 52°29' E 003°19'4 9.5
2017-Oct-13 23:22N 52°32' E 003°23'4 9.2
2017-Oct-13 22:56N 52°35' E 003°27'4 9.1
2017-Oct-13 22:30N 52°38' E 003°31'5 8.9
2017-Oct-13 21:55N 52°43' E 003°36'27 8.6
2017-Oct-13 18:47N 53°02' E 004°07'35 9.4
2017-Oct-13 15:03N 53°29' E 004°44'1 9.2
2017-Oct-13 14:59N 53°29' E 004°45'4 8.8
2017-Oct-13 14:31N 53°31' E 004°51'4 8.5
2017-Oct-13 14:00N 53°33' E 004°58'4 7.9
2017-Oct-13 13:30N 53°34' E 005°04'4 8.2
2017-Oct-13 13:00N 53°35' E 005°11'104 9.1
2017-Oct-13 01:40N 53°50' E 008°04'3 8.0
2017-Oct-13 01:21N 53°49' E 008°08'3 8.4
2017-Oct-13 01:00N 53°46' E 008°10'4 8.5
2017-Oct-13 00:30N 53°44' E 008°16'510.2
2017-Oct-13 00:00N 53°40' E 008°22'611.8
2017-Oct-12 23:30N 53°36' E 008°30'611.1
2017-Oct-12 23:00N 53°31' E 008°33'611.6
2017-Oct-12 22:30N 53°26' E 008°30'612.2
2017-Oct-12 22:01N 53°20' E 008°29'612.3
2017-Oct-12 21:30N 53°14' E 008°29'510.9
2017-Oct-12 21:00N 53°10' E 008°36'5 9.6
2017-Oct-12 20:31N 53°07' E 008°42'0 0.6
2017-Oct-12 20:00N 53°07' E 008°43'1 1.9
2017-Oct-12 19:30N 53°07' E 008°44'0 0.0
2017-Oct-12 19:00N 53°07' E 008°44'0 0.0
2017-Oct-12 18:30N 53°07' E 008°44'0 0.0
2017-Oct-12 18:00N 53°07' E 008°44'0 0.0
2017-Oct-12 17:30N 53°07' E 008°44'0 0.0
2017-Oct-12 17:00N 53°07' E 008°44'0 0.0
2017-Oct-12 16:30N 53°07' E 008°44'0 0.0
2017-Oct-12 16:00N 53°07' E 008°44'0 0.0
2017-Oct-12 15:30N 53°07' E 008°44'0 0.0
2017-Oct-12 15:00N 53°07' E 008°44'0 0.0
2017-Oct-12 14:30N 53°07' E 008°44'0 0.0
2017-Oct-12 14:00N 53°07' E 008°44'0 0.0
2017-Oct-12 13:30N 53°07' E 008°44'0 0.0
2017-Oct-12 13:00N 53°07' E 008°44'0 0.0
2017-Oct-12 12:30N 53°07' E 008°44'0 0.0
2017-Oct-12 12:00N 53°07' E 008°44'0 0.0
2017-Oct-12 11:30N 53°07' E 008°44'0 0.0
2017-Oct-12 11:00N 53°07' E 008°44'0 0.0
2017-Oct-12 10:30N 53°07' E 008°44'0 0.0
2017-Oct-12 10:00N 53°07' E 008°44'0 0.0
2017-Oct-12 09:30N 53°07' E 008°44'0 0.0
2017-Oct-12 09:00N 53°07' E 008°44'0 0.0
2017-Oct-12 08:30N 53°07' E 008°44'0 0.0
2017-Oct-12 08:00N 53°07' E 008°44'0 0.0
2017-Oct-12 07:30N 53°07' E 008°44'0 0.0
2017-Oct-12 07:00N 53°07' E 008°44'0 0.0
2017-Oct-12 06:30N 53°07' E 008°44'0 0.0
2017-Oct-12 06:00N 53°07' E 008°44'0 0.0
2017-Oct-12 05:30N 53°07' E 008°44'0 0.0
2017-Oct-12 05:00N 53°07' E 008°44'0 0.0
2017-Oct-12 04:30N 53°07' E 008°44'0 0.0
2017-Oct-12 04:00N 53°07' E 008°44'1 2.0
2017-Oct-12 03:30N 53°07' E 008°43'0 0.6
2017-Oct-12 03:00N 53°07' E 008°42'3 5.4
2017-Oct-12 02:31N 53°08' E 008°38'4 8.1
2017-Oct-12 02:00N 53°11' E 008°33'5 9.5
2017-Oct-12 01:30N 53°15' E 008°29'611.0
2017-Oct-12 01:00N 53°21' E 008°30'612.0
2017-Oct-12 00:31N 53°26' E 008°29'611.2
2017-Oct-12 00:00N 53°32' E 008°34'4 8.9
2017-Oct-11 23:31N 53°36' E 008°31'4 8.4
2017-Oct-11 23:00N 53°38' E 008°25'4 7.8
2017-Oct-11 22:30N 53°41' E 008°21'4 7.3
2017-Oct-11 22:00N 53°43' E 008°16'4 8.1
2017-Oct-11 21:31N 53°46' E 008°11'4 7.4
2017-Oct-11 21:00N 53°49' E 008°07'4 8.0
2017-Oct-11 20:30N 53°51' E 008°01'4 8.5
2017-Oct-11 20:00N 53°52' E 007°54'4 8.3
2017-Oct-11 19:29N 53°53' E 007°47'5 8.3
2017-Oct-11 18:53N 53°54' E 007°38'174 9.2
2017-Oct-11 00:00N 52°03' E 003°54'3 6.8
2017-Oct-10 23:31N 52°01' E 003°58'611.9
2017-Oct-10 23:00N 51°59' E 004°07'713.1
2017-Oct-10 22:31N 51°55' E 004°15'4 8.1
2017-Oct-10 21:58N 51°54' E 004°22'0 0.0
2017-Oct-10 21:28N 51°54' E 004°22'0 0.0
2017-Oct-10 20:58N 51°54' E 004°22'0 0.0
2017-Oct-10 20:28N 51°54' E 004°22'0 0.0
2017-Oct-10 19:58N 51°54' E 004°22'0 0.0
2017-Oct-10 19:28N 51°54' E 004°22'0 0.0
2017-Oct-10 18:58N 51°54' E 004°22'0 0.0
2017-Oct-10 18:28N 51°54' E 004°22'0 0.0
2017-Oct-10 17:58N 51°54' E 004°22'0 0.0
2017-Oct-10 17:28N 51°54' E 004°22'0 0.0
2017-Oct-10 16:58N 51°54' E 004°22'0 0.0
2017-Oct-10 16:28N 51°54' E 004°22'0 0.0
2017-Oct-10 15:58N 51°54' E 004°22'0 0.0
2017-Oct-10 15:28N 51°54' E 004°22'0 0.0
2017-Oct-10 14:58N 51°54' E 004°22'0 0.0
2017-Oct-10 13:58N 51°54' E 004°22'0 0.0
2017-Oct-10 13:28N 51°54' E 004°22'0 0.0
2017-Oct-10 12:58N 51°54' E 004°22'0 0.0
2017-Oct-10 12:28N 51°54' E 004°22'0 0.0
2017-Oct-10 11:58N 51°54' E 004°22'0 0.0
2017-Oct-10 11:28N 51°54' E 004°22'0 0.0
2017-Oct-10 10:58N 51°54' E 004°22'0 0.0
2017-Oct-10 10:28N 51°54' E 004°22'0 0.0
2017-Oct-10 09:58N 51°54' E 004°22'0 0.0
2017-Oct-10 09:28N 51°54' E 004°22'0 0.0
2017-Oct-10 08:58N 51°54' E 004°22'0 0.0
2017-Oct-10 08:28N 51°54' E 004°22'0 0.0
2017-Oct-10 07:58N 51°54' E 004°22'0 0.0
2017-Oct-10 07:28N 51°54' E 004°22'0 0.0
2017-Oct-10 06:58N 51°54' E 004°22'0 0.0
2017-Oct-10 06:28N 51°54' E 004°22'0 0.0
2017-Oct-10 05:58N 51°54' E 004°22'0 0.0
2017-Oct-10 05:28N 51°54' E 004°22'0 0.0
2017-Oct-10 04:58N 51°54' E 004°22'0 0.0
2017-Oct-10 04:28N 51°54' E 004°22'0 0.0
2017-Oct-10 03:58N 51°54' E 004°22'0 0.0
2017-Oct-10 03:28N 51°54' E 004°22'0 0.0
2017-Oct-10 02:58N 51°54' E 004°22'0 0.0
2017-Oct-10 02:28N 51°54' E 004°22'0 0.0
2017-Oct-10 01:58N 51°54' E 004°22'0 0.0
2017-Oct-10 01:28N 51°54' E 004°22'0 0.0
2017-Oct-10 00:58N 51°54' E 004°22'0 0.0
2017-Oct-10 00:28N 51°54' E 004°22'0 0.0
2017-Oct-09 23:58N 51°54' E 004°22'0 0.0
2017-Oct-09 23:28N 51°54' E 004°22'0 0.0
2017-Oct-09 22:58N 51°54' E 004°22'0 0.0
2017-Oct-09 22:28N 51°54' E 004°22'0 0.0
2017-Oct-09 21:58N 51°54' E 004°22'0 0.0
2017-Oct-09 21:28N 51°54' E 004°22'0 0.0
2017-Oct-09 20:58N 51°54' E 004°22'0 0.0
2017-Oct-09 20:28N 51°54' E 004°22'0 0.0
2017-Oct-09 19:58N 51°54' E 004°22'0 0.0
2017-Oct-09 19:28N 51°54' E 004°22'0 0.0
2017-Oct-09 18:58N 51°54' E 004°22'0 0.0
2017-Oct-09 18:28N 51°54' E 004°22'0 0.0
2017-Oct-09 17:58N 51°54' E 004°22'0 0.0
2017-Oct-09 17:28N 51°54' E 004°22'0 0.0
2017-Oct-09 16:58N 51°54' E 004°22'0 0.0
2017-Oct-09 16:28N 51°54' E 004°22'0 0.0
2017-Oct-09 15:58N 51°54' E 004°22'0 0.0
2017-Oct-09 15:28N 51°54' E 004°22'0 0.0
2017-Oct-09 14:58N 51°54' E 004°22'0 0.0
2017-Oct-09 14:28N 51°54' E 004°22'0 0.0
2017-Oct-09 13:55N 51°54' E 004°22'0 0.0
2017-Oct-09 13:28N 51°54' E 004°22'0 0.0
2017-Oct-09 12:58N 51°54' E 004°22'0 0.0
2017-Oct-09 12:25N 51°54' E 004°22'0 0.0
2017-Oct-09 11:58N 51°54' E 004°22'0 0.0
2017-Oct-09 11:28N 51°54' E 004°22'0 0.0
2017-Oct-09 10:58N 51°54' E 004°22'0 0.0
2017-Oct-09 10:28N 51°54' E 004°22'0 0.0
2017-Oct-09 09:58N 51°54' E 004°22'0 0.0
2017-Oct-09 09:28N 51°54' E 004°22'0 0.0
2017-Oct-09 08:58N 51°54' E 004°22'0 0.0
2017-Oct-09 08:28N 51°54' E 004°22'0 0.0
2017-Oct-09 07:58N 51°54' E 004°22'0 0.0
2017-Oct-09 07:28N 51°54' E 004°22'0 0.0
2017-Oct-09 06:58N 51°54' E 004°22'0 0.0
2017-Oct-09 06:28N 51°54' E 004°22'0 0.0
2017-Oct-09 05:55N 51°54' E 004°22'0 0.0
2017-Oct-09 05:28N 51°54' E 004°22'0 0.0
2017-Oct-09 04:58N 51°54' E 004°22'0 0.0
2017-Oct-09 04:28N 51°54' E 004°22'0 0.0
2017-Oct-09 03:58N 51°54' E 004°22'0 0.0
2017-Oct-09 03:28N 51°54' E 004°22'0 0.0
2017-Oct-09 02:58N 51°54' E 004°22'0 0.0
2017-Oct-09 02:28N 51°54' E 004°22'0 0.0
2017-Oct-09 01:58N 51°54' E 004°22'0 0.0
2017-Oct-09 01:28N 51°54' E 004°22'0 0.0
2017-Oct-09 00:58N 51°54' E 004°22'0 0.0
2017-Oct-09 00:28N 51°54' E 004°22'0 0.0
2017-Oct-08 23:58N 51°54' E 004°22'0 0.0
2017-Oct-08 23:28N 51°54' E 004°22'0 0.0
2017-Oct-08 22:58N 51°54' E 004°22'0 0.0
2017-Oct-08 22:28N 51°54' E 004°22'0 0.0
2017-Oct-08 21:58N 51°54' E 004°22'0 0.0
2017-Oct-08 21:28N 51°54' E 004°22'0 0.0
2017-Oct-08 20:58N 51°54' E 004°22'0 0.0
2017-Oct-08 20:28N 51°54' E 004°22'0 0.0
2017-Oct-08 19:58N 51°54' E 004°22'0 0.0
2017-Oct-08 19:28N 51°54' E 004°22'0 0.0
2017-Oct-08 18:58N 51°54' E 004°22'0 0.0
2017-Oct-08 18:28N 51°54' E 004°22'0 0.0
2017-Oct-08 17:58N 51°54' E 004°22'0 0.0
2017-Oct-08 17:28N 51°54' E 004°22'0 0.0
2017-Oct-08 16:58N 51°54' E 004°22'0 0.0
2017-Oct-08 16:28N 51°54' E 004°22'  

Dump ship's entire track history